Airfield :
LOGIN :

Register | Disclaimer

   EN    FR    IT 

 










Legend :    VFR   Marginal VFR   IFR   Intensive IFR   Very Intensive IFR
Visi :
Ceiling :
>= 8 km
>= 3000ft
5 to 8 km
1000 to 3000 ft
1500m to 5 km
500 to 1000 ft
800 to 1500m
200 to 500 ft
< 800m
< 200 ft
Symbols :   Thunderstorms  Fog  Heavy snow  Heavy precipitations  Wind > 20 kt
SIGMETs :     Misc.  Thunderstorms  Icing  Turbulence  Mountain Waves  Volcanic Ashes







- Airport Elevation : 505 ft
- IATA code : SXB
- Download approach charts


LFST - Strasbourg

CURRENT METAR :
  • 230900Z AUTO 19013KT CAVOK 10/03 Q1010 NOSIG

EXPIRED METARs :
  • 230830Z AUTO 18013KT CAVOK 10/03 Q1010 NOSIG
  • 230800Z AUTO 17008KT CAVOK 09/03 Q1010 NOSIG
  • 230730Z AUTO 16003KT 120V230 CAVOK 08/03 Q1010 TEMPO 20013G23KT
  • 230700Z AUTO 18006KT 140V210 CAVOK 08/03 Q1009 NOSIG
  • 230630Z AUTO 21005KT 150V270 CAVOK 08/03 Q1009 NOSIG

TAF TAF LFST
Valid from the 23 at 06:00 until the 24 at 06:00 UTC


230500Z 2306/2406 17012KT CAVOK
TEMPO 2306/2315 20013G23KT
PROB30
TEMPO 2320/2401 -SHRA BKN050
PROB30
TEMPO 2405/2406 -SHRA
No reported NOTAMs for that airfield.
3 SIGMETs reported for the Reims FIR (LFEE) :
 
SIGMET 1  cancelation
LFEE SIGMET 3 VALID 230740/230900 LFPW
LFEE REIMS FIR/UIR CNL SIGMET 1 230500/230900=
Severe turbulence
LFEE SIGMET 2 VALID 230730/231100 LFPW
LFEE REIMS FIR/UIR SEV TURB FCST WI N4630 E00545 - N4630 E00445 - N4730 E00415 - N4830 E00530 - N4845 E00515 - N4930 E00600 - N4900 E00800 - N4800 E00715 - N4730 E00615 SFC/FL080 STNR NC=
SIGMET 1  CANCELED :
Severe turbulence
LFEE SIGMET 1 VALID 230500/230900 LFPW
LFEE REIMS FIR/UIR SEV TURB OBS WI N4630 E00545 - N4630 E00445 - N4700 E00430 - N4830 E00600 - N4815 E00700 SFC/FL080 STNR NC=



MET'MAP, your aeronautical weather chart ! - Copyright ORBIFLY December 2007 - Disclaimer

ORBIFLY MET'MAP TEAM :

Programming & Development : Alexandra Zaïnal
Concept & Development : Baudouin d'Aumeries
Co-Development & Prog : Marc-Olivier Méhu
Technical & hardware support : Manuel Goepfert

Contact : metmap@orbifly.com




SOURCES & CREDITS :

   NOAA